Time;durP1;ratioP1;P1;durP2;ratioP2;P2;SDS_P1;SDS_P2;PMS_P1;PMS_P2;Temp;Humidity;BMP_temperature;BMP_pressure;BME280_temperature;BME280_humidity;BME280_pressure;Samples;Min_cycle;Max_cycle;Signal;HPM_P1;HPM_P2
2021/12/06 00:01:07;;;;;;;31.40;17.27;;;1.40;99.90;;;;;;5095528;28;20161;-88
2021/12/06 00:03:45;;;;;;;34.40;18.57;;;1.50;99.90;;;;;;5095487;28;20403;-88
2021/12/06 00:06:12;;;;;;;30.13;16.90;;;1.50;99.90;;;;;;5095373;28;20497;-86
2021/12/06 00:08:38;;;;;;;38.17;19.00;;;1.60;99.90;;;;;;5094360;28;20501;-86
2021/12/06 00:11:08;;;;;;;33.70;17.70;;;1.60;99.90;;;;;;5092745;28;20552;-87
2021/12/06 00:13:39;;;;;;;29.60;15.90;;;1.50;99.90;;;;;;5094085;28;20171;-87
2021/12/06 00:16:09;;;;;;;30.33;16.63;;;1.50;99.90;;;;;;5093620;28;20492;-88
2021/12/06 00:18:36;;;;;;;27.80;16.17;;;1.60;99.90;;;;;;5093744;28;20430;-87
2021/12/06 00:21:03;;;;;;;33.13;18.13;;;1.60;99.90;;;;;;5094090;28;20457;-87
2021/12/06 00:23:28;;;;;;;31.83;17.00;;;1.50;99.90;;;;;;5095193;28;20504;-88
2021/12/06 00:25:55;;;;;;;32.87;18.03;;;1.50;99.90;;;;;;5095409;28;20515;-88
2021/12/06 00:28:21;;;;;;;31.83;18.37;;;1.50;99.90;;;;;;5093634;28;20180;-88
2021/12/06 00:30:47;;;;;;;26.60;16.90;;;1.50;99.90;;;;;;5095515;28;20517;-88
2021/12/06 00:33:12;;;;;;;23.33;16.43;;;1.50;99.90;;;;;;5078715;28;20254;-89
2021/12/06 00:35:38;;;;;;;27.97;17.90;;;1.60;99.90;;;;;;5075362;28;20198;-88
2021/12/06 00:38:04;;;;;;;31.17;18.00;;;1.60;99.90;;;;;;5082360;28;20278;-84
2021/12/06 00:40:37;;;;;;;33.33;18.63;;;1.60;99.90;;;;;;5094804;28;20415;-88
2021/12/06 00:43:04;;;;;;;34.27;18.47;;;1.60;99.90;;;;;;5094177;28;20168;-88
2021/12/06 00:45:29;;;;;;;30.67;17.80;;;1.60;99.90;;;;;;5094808;28;20470;-83
2021/12/06 00:47:55;;;;;;;25.93;16.00;;;1.60;99.90;;;;;;5093472;28;20506;-85
2021/12/06 00:50:25;;;;;;;28.13;16.23;;;1.60;99.90;;;;;;5094858;28;20234;-88
2021/12/06 00:52:52;;;;;;;32.53;17.50;;;1.50;99.90;;;;;;5094762;28;20414;-88
2021/12/06 00:55:19;;;;;;;27.73;16.27;;;1.50;99.90;;;;;;5094442;28;20481;-88
2021/12/06 00:57:45;;;;;;;27.87;16.90;;;1.50;99.90;;;;;;5094478;28;20442;-84
2021/12/06 01:00:16;;;;;;;27.93;18.07;;;1.50;99.90;;;;;;5094083;28;20449;-83
2021/12/06 01:02:42;;;;;;;28.73;18.03;;;1.50;99.90;;;;;;5094648;28;20448;-84
2021/12/06 01:05:09;;;;;;;29.10;16.13;;;1.60;99.90;;;;;;5094159;28;20541;-87
2021/12/06 01:07:34;;;;;;;32.27;17.60;;;1.60;99.90;;;;;;5094393;28;20456;-88
2021/12/06 01:10:00;;;;;;;26.40;16.00;;;1.60;99.90;;;;;;5094265;28;20407;-84
2021/12/06 01:12:26;;;;;;;32.80;16.70;;;1.60;99.90;;;;;;5094242;28;20169;-83
2021/12/06 01:14:52;;;;;;;25.13;16.17;;;1.60;99.90;;;;;;5093855;28;20268;-83
2021/12/06 01:17:17;;;;;;;28.00;16.20;;;1.60;99.90;;;;;;5094323;28;20407;-87
2021/12/06 01:19:43;;;;;;;27.77;16.47;;;1.60;99.90;;;;;;5094220;28;20761;-88
2021/12/06 01:24:52;;;;;;;31.87;16.97;;;1.60;99.90;;;;;;5094070;28;20304;-88
2021/12/06 01:30:47;;;;;;;26.33;15.57;;;1.50;99.90;;;;;;5093630;28;20465;-83
2021/12/06 01:40:49;;;;;;;26.47;15.30;;;1.00;99.90;;;;;;5089453;28;20434;-84
2021/12/06 01:43:14;;;;;;;27.90;16.43;;;1.00;99.90;;;;;;5072494;28;20518;-84
2021/12/06 01:45:40;;;;;;;21.87;14.90;;;0.70;99.90;;;;;;5073904;28;20211;-84
2021/12/06 01:48:06;;;;;;;28.00;17.50;;;0.70;99.90;;;;;;5074266;28;20233;-89
2021/12/06 01:50:31;;;;;;;26.47;16.20;;;0.70;99.90;;;;;;5073849;28;20244;-89
2021/12/06 01:53:00;;;;;;;29.13;15.83;;;0.70;99.90;;;;;;5073794;28;20604;-91
2021/12/06 01:55:30;;;;;;;29.77;16.93;;;0.70;99.90;;;;;;5073342;28;20233;-89
2021/12/06 01:57:57;;;;;;;25.57;13.77;;;0.70;99.90;;;;;;5073497;28;20889;-83
2021/12/06 02:00:37;;;;;;;23.10;15.77;;;0.70;99.90;;;;;;5073762;28;20415;-90
2021/12/06 02:03:04;;;;;;;22.30;13.60;;;0.60;99.90;;;;;;5073810;28;20459;-91
2021/12/06 02:05:30;;;;;;;28.53;14.40;;;0.60;99.90;;;;;;5074151;28;20469;-91
2021/12/06 02:07:56;;;;;;;24.97;15.00;;;0.60;99.90;;;;;;5073509;28;20403;-86
2021/12/06 02:10:23;;;;;;;22.33;14.03;;;0.60;99.90;;;;;;5073308;28;20474;-90
2021/12/06 02:12:51;;;;;;;28.37;15.13;;;0.60;99.90;;;;;;5073367;28;20164;-87
2021/12/06 02:15:35;;;;;;;25.20;14.27;;;0.50;99.90;;;;;;5083110;28;20421;-82
2021/12/06 02:18:10;;;;;;;25.37;16.03;;;0.40;99.90;;;;;;5094073;28;20457;-91
2021/12/06 02:20:43;;;;;;;26.07;14.70;;;0.40;99.90;;;;;;5093925;28;20422;-86
2021/12/06 02:23:09;;;;;;;29.07;14.50;;;0.40;99.90;;;;;;5093765;28;20411;-87
2021/12/06 02:25:35;;;;;;;22.87;14.60;;;0.40;99.90;;;;;;5093554;28;20804;-92
2021/12/06 02:28:01;;;;;;;25.00;15.50;;;0.30;99.90;;;;;;5093293;28;20180;-84
2021/12/06 02:30:27;;;;;;;26.43;16.03;;;0.20;99.90;;;;;;5093188;28;20444;-85
2021/12/06 02:32:55;;;;;;;24.93;15.80;;;0.20;99.90;;;;;;5094025;28;20522;-87
2021/12/06 02:35:23;;;;;;;24.00;15.13;;;0.20;99.90;;;;;;5093793;28;20574;-88
2021/12/06 02:37:49;;;;;;;26.17;14.30;;;0.20;99.90;;;;;;5093976;28;20475;-83
2021/12/06 02:40:21;;;;;;;29.63;16.40;;;0.20;99.90;;;;;;5076635;28;20441;-90
2021/12/06 02:42:48;;;;;;;32.30;15.70;;;0.10;99.90;;;;;;5073562;28;20406;-92
2021/12/06 02:45:16;;;;;;;20.83;14.60;;;0.10;99.90;;;;;;5073129;28;20466;-85
2021/12/06 02:47:42;;;;;;;23.70;13.40;;;0.00;99.90;;;;;;5072924;28;20421;-87
2021/12/06 02:50:10;;;;;;;29.70;15.03;;;0.10;99.90;;;;;;5073225;28;20425;-87
2021/12/06 02:52:38;;;;;;;29.73;15.30;;;0.10;99.90;;;;;;5073089;28;20168;-83
2021/12/06 02:55:21;;;;;;;27.43;15.50;;;0.00;99.90;;;;;;5072887;28;20804;-88
2021/12/06 02:57:53;;;;;;;24.40;15.57;;;0.00;99.90;;;;;;5072420;28;20468;-84
2021/12/06 03:00:19;;;;;;;27.73;15.63;;;-0.10;99.90;;;;;;5072990;28;20493;-85
2021/12/06 03:02:45;;;;;;;28.40;18.07;;;-0.10;99.90;;;;;;5073029;28;20835;-85
2021/12/06 03:05:10;;;;;;;20.23;13.87;;;-0.10;99.90;;;;;;5073320;28;20223;-86
2021/12/06 03:07:37;;;;;;;26.43;15.87;;;-0.10;99.90;;;;;;5075366;28;20268;-86
2021/12/06 03:10:05;;;;;;;27.70;15.87;;;-0.20;99.90;;;;;;5076893;28;20169;-84
2021/12/06 03:12:31;;;;;;;20.37;13.33;;;-0.20;99.90;;;;;;5076324;28;20441;-83
2021/12/06 03:14:59;;;;;;;32.63;17.57;;;-0.30;99.90;;;;;;5076407;28;20413;-88
2021/12/06 03:17:27;;;;;;;26.50;14.10;;;-0.20;99.90;;;;;;5076283;28;20482;-86
2021/12/06 03:19:53;;;;;;;34.20;15.40;;;-0.20;99.90;;;;;;5076608;28;20750;-85
2021/12/06 03:22:20;;;;;;;25.73;14.13;;;-0.30;99.90;;;;;;5077034;28;20436;-91
2021/12/06 03:24:46;;;;;;;27.50;16.40;;;-0.40;99.90;;;;;;5076740;28;20176;-90
2021/12/06 03:27:13;;;;;;;24.97;14.43;;;-0.20;99.90;;;;;;5076750;28;20423;-90
2021/12/06 03:29:39;;;;;;;31.00;17.47;;;-0.20;99.90;;;;;;5076544;28;20199;-90
2021/12/06 03:32:05;;;;;;;21.27;15.10;;;-0.30;99.90;;;;;;5076710;28;20410;-86
2021/12/06 03:34:32;;;;;;;33.27;17.50;;;-0.30;99.90;;;;;;5076701;28;20183;-90
2021/12/06 03:37:01;;;;;;;25.03;15.37;;;-0.20;99.90;;;;;;5076221;28;20406;-88
2021/12/06 03:39:32;;;;;;;24.67;16.57;;;-0.20;99.90;;;;;;5076454;28;20461;-91
2021/12/06 03:42:01;;;;;;;24.63;14.17;;;-0.30;99.90;;;;;;5076341;28;20417;-89
2021/12/06 03:44:28;;;;;;;27.13;17.40;;;-0.30;99.90;;;;;;5074899;28;20758;-90
2021/12/06 03:46:58;;;;;;;27.97;15.87;;;-0.30;99.90;;;;;;5076337;28;20458;-88
2021/12/06 03:49:24;;;;;;;20.87;14.87;;;-0.30;99.90;;;;;;5076146;28;20387;-88
2021/12/06 03:51:50;;;;;;;30.73;16.90;;;-0.30;99.90;;;;;;5076357;28;20462;-89
2021/12/06 03:54:20;;;;;;;26.43;15.03;;;-0.30;99.90;;;;;;5076319;28;20902;-90
2021/12/06 03:56:46;;;;;;;23.77;14.90;;;-0.40;99.90;;;;;;5076314;28;20407;-89
2021/12/06 03:59:12;;;;;;;26.13;15.73;;;-0.30;99.90;;;;;;5075770;28;20936;-91
2021/12/06 04:01:38;;;;;;;26.60;14.33;;;-0.40;99.90;;;;;;5076064;28;20411;-89
2021/12/06 04:04:06;;;;;;;21.10;13.40;;;-0.40;99.90;;;;;;5075909;28;20253;-87
2021/12/06 04:06:33;;;;;;;31.77;17.27;;;-0.30;99.90;;;;;;5087208;28;20464;-90
2021/12/06 04:08:59;;;;;;;24.43;14.20;;;-0.20;99.90;;;;;;5096015;28;20502;-90
2021/12/06 04:11:25;;;;;;;21.73;14.53;;;-0.10;99.90;;;;;;5096113;28;20418;-87
2021/12/06 04:13:51;;;;;;;22.60;14.80;;;-0.10;99.90;;;;;;5095847;28;20256;-88
2021/12/06 04:16:17;;;;;;;26.40;16.60;;;0.00;99.90;;;;;;5096244;28;20404;-90
2021/12/06 04:18:43;;;;;;;23.40;13.93;;;0.00;99.90;;;;;;5095280;28;20168;-90
2021/12/06 04:21:09;;;;;;;31.20;15.40;;;0.00;99.90;;;;;;5095827;28;20421;-87
2021/12/06 04:23:36;;;;;;;31.80;16.17;;;0.10;99.90;;;;;;5095662;28;20435;-90
2021/12/06 04:26:04;;;;;;;23.63;14.00;;;0.20;99.90;;;;;;5095722;28;20458;-89
2021/12/06 04:28:32;;;;;;;28.50;16.80;;;0.20;99.90;;;;;;5095346;28;20413;-88
2021/12/06 04:30:58;;;;;;;25.17;14.47;;;0.10;99.90;;;;;;5095362;28;20988;-89
2021/12/06 04:33:24;;;;;;;27.70;15.23;;;0.10;99.90;;;;;;5095666;28;20414;-89
2021/12/06 04:35:50;;;;;;;24.97;17.47;;;0.10;99.90;;;;;;5095835;28;20205;-88
2021/12/06 04:38:16;;;;;;;25.03;15.13;;;0.10;99.90;;;;;;5095824;28;20463;-90
2021/12/06 04:40:42;;;;;;;23.67;15.77;;;0.10;99.90;;;;;;5095514;28;20782;-90
2021/12/06 04:43:09;;;;;;;20.03;13.30;;;0.10;99.90;;;;;;5095332;28;20164;-89
2021/12/06 04:45:35;;;;;;;28.37;15.40;;;0.00;99.90;;;;;;5095536;28;20488;-90
2021/12/06 04:48:02;;;;;;;24.83;14.90;;;0.00;99.90;;;;;;5095407;28;20405;-89
2021/12/06 04:50:31;;;;;;;24.17;15.10;;;-0.10;99.90;;;;;;5095458;28;20418;-89
2021/12/06 04:53:03;;;;;;;24.30;15.80;;;-0.10;99.90;;;;;;5095195;28;20414;-90
2021/12/06 04:55:46;;;;;;;27.07;15.33;;;-0.20;99.90;;;;;;5095607;28;20409;-89
2021/12/06 04:58:17;;;;;;;25.57;14.93;;;-0.30;99.90;;;;;;5094838;28;20433;-89
2021/12/06 05:00:51;;;;;;;25.33;14.70;;;-0.20;99.90;;;;;;5095330;28;20420;-89
2021/12/06 05:03:17;;;;;;;27.57;15.43;;;-0.30;99.90;;;;;;5095221;28;20904;-89
2021/12/06 05:05:51;;;;;;;29.43;18.23;;;-0.20;99.90;;;;;;5095088;28;20454;-88
2021/12/06 05:08:27;;;;;;;27.60;16.07;;;-0.20;99.90;;;;;;5093740;28;20406;-89
2021/12/06 05:10:53;;;;;;;28.93;15.90;;;-0.30;99.90;;;;;;5074481;28;20423;-89
2021/12/06 05:13:19;;;;;;;26.43;14.70;;;-0.30;99.90;;;;;;5073943;28;20469;-89
2021/12/06 05:15:45;;;;;;;20.60;13.87;;;-0.50;99.90;;;;;;5074877;28;20950;-89
2021/12/06 05:18:11;;;;;;;27.53;15.97;;;-0.40;99.90;;;;;;5074464;28;20407;-87
2021/12/06 05:20:37;;;;;;;27.37;14.67;;;-0.50;99.90;;;;;;5074500;28;20172;-89
2021/12/06 05:23:04;;;;;;;21.90;12.83;;;-0.50;99.90;;;;;;5074436;28;20643;-88
2021/12/06 05:25:30;;;;;;;25.10;13.53;;;-0.50;99.90;;;;;;5074228;28;20200;-89
2021/12/06 05:27:59;;;;;;;25.13;12.70;;;-0.50;99.90;;;;;;5073967;28;20772;-89
2021/12/06 05:30:25;;;;;;;22.70;14.40;;;-0.50;99.90;;;;;;5091252;28;20456;-89
2021/12/06 05:32:53;;;;;;;29.20;13.53;;;-0.20;99.90;;;;;;5094545;28;20418;-86
2021/12/06 05:35:19;;;;;;;24.83;15.40;;;-0.10;99.90;;;;;;5093501;28;20443;-87
2021/12/06 05:37:49;;;;;;;26.73;14.63;;;0.10;99.90;;;;;;5094315;28;20968;-90
2021/12/06 05:40:19;;;;;;;23.73;14.63;;;0.20;99.90;;;;;;5094631;28;20413;-89
2021/12/06 05:42:45;;;;;;;19.27;13.00;;;0.20;99.90;;;;;;5094245;28;20815;-88
2021/12/06 05:45:14;;;;;;;18.37;11.43;;;0.30;99.90;;;;;;5094608;28;20518;-90
2021/12/06 05:47:40;;;;;;;20.73;12.17;;;0.30;99.90;;;;;;5095183;28;20412;-91
2021/12/06 05:50:06;;;;;;;22.80;14.80;;;0.40;99.90;;;;;;5095258;28;20428;-89
2021/12/06 05:52:32;;;;;;;29.00;14.37;;;0.40;99.90;;;;;;5097213;28;20625;-86
2021/12/06 05:54:58;;;;;;;21.00;12.50;;;0.40;99.90;;;;;;5103303;28;20514;-87
2021/12/06 05:57:23;;;;;;;23.87;13.13;;;0.40;99.90;;;;;;5105931;28;20172;-84
2021/12/06 05:59:49;;;;;;;26.27;13.73;;;0.50;99.90;;;;;;5104012;28;20164;-86
2021/12/06 06:02:16;;;;;;;26.53;13.03;;;0.50;99.90;;;;;;5099583;28;20168;-89
2021/12/06 06:04:41;;;;;;;25.60;12.73;;;0.50;99.90;;;;;;5093970;28;20217;-89
2021/12/06 06:07:07;;;;;;;20.33;11.70;;;0.50;99.90;;;;;;5093770;28;20430;-84
2021/12/06 06:09:34;;;;;;;18.67;11.90;;;0.50;99.90;;;;;;5093747;28;20167;-84
2021/12/06 06:12:00;;;;;;;23.93;13.10;;;0.50;99.90;;;;;;5093944;28;20763;-84
2021/12/06 06:14:26;;;;;;;24.13;12.90;;;0.50;99.90;;;;;;5093886;28;20434;-84
2021/12/06 06:16:53;;;;;;;27.00;13.70;;;0.50;99.90;;;;;;5094046;28;20460;-84
2021/12/06 06:19:23;;;;;;;25.10;13.20;;;0.50;99.90;;;;;;5094110;28;20438;-86
2021/12/06 06:21:50;;;;;;;23.87;14.50;;;0.50;99.90;;;;;;5092790;28;20410;-84
2021/12/06 06:24:15;;;;;;;18.50;12.23;;;0.50;99.90;;;;;;5093940;28;20414;-83
2021/12/06 06:26:41;;;;;;;19.50;10.60;;;0.40;99.90;;;;;;5093770;28;20488;-89
2021/12/06 06:29:08;;;;;;;23.43;13.03;;;0.50;99.90;;;;;;5087804;28;20188;-88
2021/12/06 06:31:33;;;;;;;20.13;11.30;;;0.40;99.90;;;;;;5073324;28;20200;-88
2021/12/06 06:33:59;;;;;;;21.03;12.00;;;0.40;99.90;;;;;;5074128;28;20413;-86
2021/12/06 06:36:25;;;;;;;22.23;13.33;;;0.50;99.90;;;;;;5073922;28;20177;-90
2021/12/06 06:38:50;;;;;;;20.97;13.30;;;0.50;99.90;;;;;;5073582;28;20228;-89
2021/12/06 06:41:16;;;;;;;23.40;12.37;;;0.50;99.90;;;;;;5075945;28;20621;-90
2021/12/06 06:43:41;;;;;;;22.10;12.43;;;0.50;99.90;;;;;;5077312;28;20177;-86
2021/12/06 06:46:07;;;;;;;16.60;10.50;;;0.50;99.90;;;;;;5077095;28;20216;-88
2021/12/06 06:48:33;;;;;;;20.53;11.57;;;0.40;99.90;;;;;;5077157;28;20196;-89
2021/12/06 06:50:59;;;;;;;25.03;12.70;;;0.40;99.90;;;;;;5076961;28;20423;-87
2021/12/06 06:53:27;;;;;;;23.83;12.57;;;0.30;99.90;;;;;;5076712;28;20399;-87
2021/12/06 06:55:54;;;;;;;17.60;11.87;;;0.30;99.90;;;;;;5075755;28;20763;-89
2021/12/06 06:58:20;;;;;;;22.80;11.00;;;0.40;99.90;;;;;;5076829;28;20799;-88
2021/12/06 07:00:46;;;;;;;23.47;12.43;;;0.30;99.90;;;;;;5075785;28;20910;-86
2021/12/06 07:03:11;;;;;;;23.80;13.40;;;0.30;99.90;;;;;;5077093;28;20502;-88
2021/12/06 07:05:38;;;;;;;23.17;11.87;;;0.30;99.90;;;;;;5076741;28;20466;-89
2021/12/06 07:08:04;;;;;;;22.33;11.93;;;0.30;99.90;;;;;;5077205;28;20586;-88
2021/12/06 07:10:30;;;;;;;22.10;11.67;;;0.30;99.90;;;;;;5087587;28;20509;-87
2021/12/06 07:12:56;;;;;;;21.00;13.47;;;0.30;99.90;;;;;;5096835;28;20480;-86
2021/12/06 07:15:26;;;;;;;18.50;11.40;;;0.30;99.90;;;;;;5097115;28;20240;-90
2021/12/06 07:17:53;;;;;;;21.67;12.50;;;0.30;99.90;;;;;;5097238;28;20406;-87
2021/12/06 07:20:20;;;;;;;23.80;12.53;;;0.40;99.90;;;;;;5097017;28;20410;-90
2021/12/06 07:22:48;;;;;;;19.90;10.00;;;0.30;99.90;;;;;;5096951;28;20410;-88
2021/12/06 07:25:15;;;;;;;24.23;12.20;;;0.40;99.90;;;;;;5096361;28;20552;-90
2021/12/06 07:27:42;;;;;;;22.10;14.50;;;0.40;99.90;;;;;;5096559;28;20419;-87
2021/12/06 07:30:10;;;;;;;21.20;12.87;;;0.40;99.90;;;;;;5090002;28;20458;-89
2021/12/06 07:32:36;;;;;;;24.70;14.30;;;0.50;99.90;;;;;;5096975;28;20414;-88
2021/12/06 07:35:03;;;;;;;22.27;12.70;;;0.50;99.90;;;;;;5096919;28;20445;-90
2021/12/06 07:37:29;;;;;;;21.63;12.47;;;0.50;99.90;;;;;;5097875;28;20914;-90
2021/12/06 07:39:55;;;;;;;17.00;11.43;;;0.60;99.90;;;;;;5097565;28;20419;-91
2021/12/06 07:42:21;;;;;;;18.83;11.10;;;0.70;99.90;;;;;;5096180;28;20421;-90
2021/12/06 07:44:47;;;;;;;18.80;10.97;;;0.60;99.90;;;;;;5089547;28;20537;-87
2021/12/06 07:47:13;;;;;;;19.23;11.70;;;0.60;99.90;;;;;;5092264;28;20438;-86
2021/12/06 07:49:40;;;;;;;16.40;10.60;;;0.60;99.90;;;;;;5095566;28;20407;-85
2021/12/06 07:52:06;;;;;;;18.80;10.17;;;0.60;99.90;;;;;;5094350;28;20426;-87
2021/12/06 07:54:33;;;;;;;16.40;10.33;;;0.70;99.90;;;;;;5094878;28;20410;-86
2021/12/06 07:56:59;;;;;;;23.00;13.20;;;0.70;99.90;;;;;;5094362;28;20475;-87
2021/12/06 07:59:25;;;;;;;18.20;12.10;;;0.80;99.90;;;;;;5093883;28;20423;-86
2021/12/06 08:01:51;;;;;;;20.10;12.00;;;0.80;99.90;;;;;;5094139;28;20782;-85
2021/12/06 08:04:18;;;;;;;15.83;11.40;;;0.80;99.90;;;;;;5094271;28;20433;-87
2021/12/06 08:06:44;;;;;;;15.17;8.77;;;0.80;99.90;;;;;;5095584;28;20204;-87
2021/12/06 08:09:10;;;;;;;23.27;10.83;;;0.80;99.90;;;;;;5095389;28;20438;-87
2021/12/06 08:11:36;;;;;;;19.37;11.77;;;0.80;99.90;;;;;;5095503;28;20413;-85
2021/12/06 08:14:03;;;;;;;23.33;10.90;;;0.90;99.90;;;;;;5095808;28;20410;-87
2021/12/06 08:16:33;;;;;;;19.80;11.57;;;0.90;99.90;;;;;;5089109;28;20189;-86
2021/12/06 08:19:00;;;;;;;17.53;11.30;;;0.90;99.90;;;;;;5088820;28;20441;-86
2021/12/06 08:21:27;;;;;;;19.97;10.70;;;0.80;99.90;;;;;;5080030;28;20463;-85
2021/12/06 08:23:54;;;;;;;18.00;10.17;;;0.90;99.90;;;;;;5074928;28;20411;-85
2021/12/06 08:26:23;;;;;;;18.23;11.10;;;1.00;99.90;;;;;;5074774;28;20887;-86
2021/12/06 08:28:51;;;;;;;17.23;10.17;;;1.10;99.90;;;;;;5074353;28;20419;-85
2021/12/06 08:31:22;;;;;;;15.17;9.83;;;1.20;99.90;;;;;;5074786;28;20411;-87
2021/12/06 08:33:49;;;;;;;16.03;11.00;;;1.20;99.90;;;;;;5074631;28;20994;-85
2021/12/06 08:36:16;;;;;;;16.27;10.17;;;1.30;99.90;;;;;;5074487;28;20823;-85
2021/12/06 08:38:42;;;;;;;15.70;9.13;;;1.40;99.90;;;;;;5074281;28;20451;-85
2021/12/06 08:41:14;;;;;;;21.53;10.57;;;1.50;99.90;;;;;;5074486;28;20426;-86
2021/12/06 08:43:41;;;;;;;14.10;9.40;;;1.50;99.90;;;;;;5073961;28;20923;-85
2021/12/06 08:46:15;;;;;;;19.80;10.57;;;1.50;99.90;;;;;;5074192;28;20467;-86
2021/12/06 08:48:42;;;;;;;16.80;10.63;;;1.50;99.90;;;;;;5074278;28;20415;-86
2021/12/06 08:51:24;;;;;;;18.73;11.40;;;1.80;99.90;;;;;;5074539;28;20480;-86
2021/12/06 08:53:51;;;;;;;16.70;10.73;;;1.90;99.90;;;;;;5083413;28;20431;-88
2021/12/06 08:56:18;;;;;;;14.70;9.60;;;1.90;99.90;;;;;;5080880;28;20434;-86
2021/12/06 08:58:44;;;;;;;20.97;10.10;;;1.90;99.90;;;;;;5092904;28;20422;-86
2021/12/06 09:01:11;;;;;;;18.23;9.97;;;1.80;99.90;;;;;;5094397;28;20437;-87
2021/12/06 09:03:36;;;;;;;18.70;10.90;;;1.90;99.90;;;;;;5094299;28;20415;-85
2021/12/06 09:06:05;;;;;;;15.00;10.50;;;1.90;99.90;;;;;;5094167;28;20465;-85
2021/12/06 09:08:32;;;;;;;19.33;10.20;;;1.80;99.90;;;;;;5094350;28;20170;-84
2021/12/06 09:10:58;;;;;;;16.73;10.17;;;1.80;99.90;;;;;;5094233;28;20403;-86
2021/12/06 09:13:26;;;;;;;22.23;11.00;;;1.90;99.90;;;;;;5093848;28;20884;-87
2021/12/06 09:15:53;;;;;;;18.93;10.20;;;1.80;99.90;;;;;;5094467;28;20921;-87
2021/12/06 09:18:20;;;;;;;17.97;11.30;;;1.70;99.90;;;;;;5094419;28;20403;-87
2021/12/06 09:20:48;;;;;;;18.73;9.83;;;1.90;99.90;;;;;;5094251;28;20418;-86
2021/12/06 09:23:15;;;;;;;15.13;9.47;;;1.70;99.90;;;;;;5094049;28;20787;-86
2021/12/06 09:25:43;;;;;;;19.60;10.90;;;1.70;99.90;;;;;;5093797;28;20829;-87
2021/12/06 09:28:09;;;;;;;16.30;10.50;;;1.50;99.90;;;;;;5093716;28;20450;-86
2021/12/06 09:30:37;;;;;;;21.13;12.00;;;1.50;99.90;;;;;;5093912;28;20402;-86
2021/12/06 09:33:06;;;;;;;16.50;10.13;;;1.50;99.90;;;;;;5093770;28;20471;-86
2021/12/06 09:35:34;;;;;;;18.67;11.03;;;1.60;99.90;;;;;;5092843;28;20425;-87
2021/12/06 09:38:00;;;;;;;17.97;9.97;;;1.50;99.90;;;;;;5093501;28;20454;-87
2021/12/06 09:40:28;;;;;;;17.37;10.27;;;1.50;99.90;;;;;;5093907;28;20410;-88
2021/12/06 09:42:57;;;;;;;16.63;11.33;;;1.50;99.90;;;;;;5093489;28;20171;-87
2021/12/06 09:45:26;;;;;;;22.00;12.07;;;1.50;99.90;;;;;;5093479;28;20461;-86
2021/12/06 09:47:53;;;;;;;16.50;10.50;;;1.50;99.90;;;;;;5093906;28;20501;-84
2021/12/06 09:50:29;;;;;;;20.73;12.60;;;1.50;99.90;;;;;;5093704;28;20414;-88
2021/12/06 09:52:58;;;;;;;18.10;10.00;;;1.60;99.90;;;;;;5093853;28;20409;-84
2021/12/06 09:55:25;;;;;;;20.87;13.13;;;1.70;99.90;;;;;;5084139;28;20526;-87
2021/12/06 09:57:52;;;;;;;17.33;10.97;;;1.70;99.90;;;;;;5073124;28;20458;-89
2021/12/06 10:00:26;;;;;;;15.80;10.93;;;1.60;99.90;;;;;;5073999;28;20459;-86
2021/12/06 10:02:52;;;;;;;18.00;9.60;;;1.60;99.90;;;;;;5082837;28;20421;-89
2021/12/06 10:05:18;;;;;;;18.27;10.70;;;1.60;99.90;;;;;;5093578;28;20450;-87
2021/12/06 10:07:44;;;;;;;20.87;10.40;;;1.50;99.90;;;;;;5093906;28;20425;-89
2021/12/06 10:10:13;;;;;;;18.63;10.67;;;1.50;99.90;;;;;;5093657;28;20417;-88
2021/12/06 10:12:42;;;;;;;17.03;10.90;;;1.40;99.90;;;;;;5091310;28;20415;-88
2021/12/06 10:15:09;;;;;;;16.47;10.40;;;1.50;99.90;;;;;;5085621;28;20509;-85
2021/12/06 10:17:35;;;;;;;19.03;11.10;;;1.40;99.90;;;;;;5097669;28;20450;-87
2021/12/06 10:20:01;;;;;;;16.60;11.90;;;1.40;99.90;;;;;;5079890;28;20477;-87
2021/12/06 10:22:27;;;;;;;21.20;13.13;;;1.50;99.90;;;;;;5077390;28;20207;-88
2021/12/06 10:24:57;;;;;;;17.40;10.90;;;1.50;99.90;;;;;;5077406;28;20425;-86
2021/12/06 10:27:24;;;;;;;17.43;10.87;;;1.60;99.90;;;;;;5079147;28;20439;-87
2021/12/06 10:29:59;;;;;;;22.90;13.50;;;1.50;99.90;;;;;;5076884;28;20926;-86
2021/12/06 10:32:31;;;;;;;18.30;11.00;;;1.40;99.90;;;;;;5077062;28;20420;-86
2021/12/06 10:34:59;;;;;;;26.33;13.20;;;1.40;99.90;;;;;;5077562;28;20400;-87
2021/12/06 10:37:45;;;;;;;18.57;10.80;;;1.40;99.90;;;;;;5076544;28;20514;-87
2021/12/06 10:40:17;;;;;;;20.67;12.10;;;1.40;99.90;;;;;;5081292;28;20564;-86
2021/12/06 10:42:46;;;;;;;19.20;13.00;;;1.40;99.90;;;;;;5075304;28;20407;-86
2021/12/06 10:45:17;;;;;;;19.17;12.67;;;1.30;99.90;;;;;;5075527;28;20454;-87
2021/12/06 10:48:02;;;;;;;17.97;11.00;;;1.30;99.90;;;;;;5076656;28;20441;-87
2021/12/06 10:50:28;;;;;;;18.33;11.43;;;1.30;99.90;;;;;;5075386;28;20410;-86
2021/12/06 10:52:57;;;;;;;21.40;12.90;;;1.40;99.90;;;;;;5076714;28;20501;-87
2021/12/06 10:55:27;;;;;;;25.00;14.80;;;1.30;99.90;;;;;;5075189;28;20175;-87
2021/12/06 10:57:59;;;;;;;20.47;12.17;;;1.40;99.90;;;;;;5075027;28;20423;-86
2021/12/06 11:00:51;;;;;;;26.33;15.07;;;1.40;99.90;;;;;;5075128;28;20473;-87
2021/12/06 11:03:40;;;;;;;25.67;13.73;;;1.30;99.90;;;;;;5076381;28;20417;-86
2021/12/06 11:06:19;;;;;;;26.13;16.67;;;1.30;99.90;;;;;;5076235;28;20489;-86
2021/12/06 11:08:49;;;;;;;26.67;14.70;;;1.20;99.90;;;;;;5076587;28;20441;-87
2021/12/06 11:11:23;;;;;;;28.37;16.33;;;1.40;99.90;;;;;;5076135;28;20414;-87
2021/12/06 11:13:52;;;;;;;32.90;17.13;;;1.40;99.90;;;;;;5076623;28;20500;-87
2021/12/06 11:16:21;;;;;;;21.50;13.70;;;1.30;99.90;;;;;;5076229;28;20437;-88
2021/12/06 11:18:54;;;;;;;22.90;13.73;;;1.20;99.90;;;;;;5076494;28;20407;-87
2021/12/06 11:21:42;;;;;;;20.23;14.37;;;1.20;99.90;;;;;;5084874;28;20426;-86
2021/12/06 11:24:32;;;;;;;29.63;16.40;;;1.20;99.90;;;;;;5094989;28;20449;-87
2021/12/06 11:27:21;;;;;;;23.13;14.77;;;1.20;99.90;;;;;;5094589;28;20487;-84
2021/12/06 11:29:52;;;;;;;20.97;14.27;;;1.10;99.90;;;;;;5096042;28;20413;-87
2021/12/06 11:32:23;;;;;;;28.07;17.63;;;1.20;99.90;;;;;;5096263;28;20441;-87
2021/12/06 11:35:04;;;;;;;25.33;16.20;;;1.20;99.90;;;;;;5096078;28;20511;-87
2021/12/06 11:37:42;;;;;;;26.90;15.07;;;1.20;99.90;;;;;;5094406;28;20638;-86
2021/12/06 11:40:22;;;;;;;25.23;16.50;;;1.30;99.90;;;;;;5095871;28;20465;-83
2021/12/06 11:42:49;;;;;;;25.17;16.13;;;1.10;99.90;;;;;;5111418;28;20505;-88
2021/12/06 11:45:35;;;;;;;31.23;15.60;;;1.20;99.90;;;;;;5095850;28;20544;-88
2021/12/06 11:48:13;;;;;;;29.67;17.23;;;1.20;99.90;;;;;;5095651;28;21003;-85
2021/12/06 11:50:43;;;;;;;26.67;15.60;;;1.20;99.90;;;;;;5092210;28;20468;-87
2021/12/06 11:53:09;;;;;;;29.27;16.20;;;1.10;99.90;;;;;;5096021;28;20422;-87
2021/12/06 11:55:42;;;;;;;29.17;18.07;;;1.20;99.90;;;;;;5094289;28;20410;-86
2021/12/06 11:58:28;;;;;;;33.40;18.40;;;1.10;99.90;;;;;;5095809;28;20255;-85
2021/12/06 12:01:16;;;;;;;32.27;19.80;;;1.10;99.90;;;;;;5095799;28;20902;-86
2021/12/06 12:03:44;;;;;;;31.80;18.50;;;1.20;99.90;;;;;;5094716;28;20426;-88
2021/12/06 12:06:31;;;;;;;29.67;16.63;;;1.20;99.90;;;;;;5096269;28;20505;-89
2021/12/06 12:09:09;;;;;;;33.77;17.50;;;1.30;99.90;;;;;;5095640;28;20430;-89
2021/12/06 12:11:59;;;;;;;29.80;16.47;;;1.20;99.90;;;;;;5094001;28;20455;-88
2021/12/06 12:14:52;;;;;;;29.37;19.07;;;1.20;99.90;;;;;;5094403;28;21102;-88
2021/12/06 12:17:27;;;;;;;25.00;17.30;;;1.20;99.90;;;;;;5094271;28;20525;-88
2021/12/06 12:19:56;;;;;;;27.00;16.90;;;1.20;99.90;;;;;;5093988;28;20401;-87
2021/12/06 12:22:24;;;;;;;21.67;14.33;;;1.20;99.90;;;;;;5093774;28;20773;-88
2021/12/06 12:24:54;;;;;;;25.07;18.67;;;1.10;99.90;;;;;;5098403;28;20625;-86
2021/12/06 12:27:30;;;;;;;36.10;20.53;;;1.20;99.90;;;;;;5106404;28;20591;-90
2021/12/06 12:29:59;;;;;;;27.33;18.23;;;1.20;99.90;;;;;;5108178;28;20399;-89
2021/12/06 12:32:27;;;;;;;28.47;19.07;;;1.30;99.90;;;;;;5106154;28;20414;-89
2021/12/06 12:34:54;;;;;;;36.00;18.80;;;1.30;99.90;;;;;;5097075;28;20419;-87
2021/12/06 12:37:23;;;;;;;35.30;20.00;;;1.30;99.90;;;;;;5096450;28;20422;-89
2021/12/06 12:40:09;;;;;;;29.70;19.63;;;1.40;99.90;;;;;;5104522;28;20469;-92
2021/12/06 12:42:35;;;;;;;24.57;16.40;;;1.30;99.90;;;;;;5102662;28;20426;-88
2021/12/06 12:45:03;;;;;;;32.50;19.07;;;1.40;99.90;;;;;;5096354;28;20408;-90
2021/12/06 12:47:32;;;;;;;33.30;18.80;;;1.40;99.90;;;;;;5094458;28;20525;-88
2021/12/06 12:50:01;;;;;;;29.53;16.90;;;1.40;99.90;;;;;;5095497;28;20409;-88
2021/12/06 12:52:51;;;;;;;25.80;15.70;;;1.30;99.90;;;;;;5094231;28;21038;-88
2021/12/06 12:55:48;;;;;;;30.07;19.00;;;1.30;99.90;;;;;;5093893;28;20428;-86
2021/12/06 12:58:25;;;;;;;30.73;19.50;;;1.30;99.90;;;;;;5093526;28;20475;-87